sensor_id;sensor_type;location;lat;lon;timestamp;pressure;altitude;pressure_sealevel;temperature;humidity
12213;BME280;6169;44.158;22.788;2023-03-18T00:03:25;101665.00;;;7.02;47.88
12213;BME280;6169;44.158;22.788;2023-03-18T00:08:28;101601.22;;;6.41;48.59
12213;BME280;6169;44.158;22.788;2023-03-18T00:13:33;101692.31;;;6.62;48.32
12213;BME280;6169;44.158;22.788;2023-03-18T00:18:35;101661.22;;;6.66;47.14
12213;BME280;6169;44.158;22.788;2023-03-18T00:23:37;101674.63;;;6.45;48.74
12213;BME280;6169;44.158;22.788;2023-03-18T00:28:41;101660.91;;;6.32;48.52
12213;BME280;6169;44.158;22.788;2023-03-18T00:33:44;101653.50;;;6.63;47.57
12213;BME280;6169;44.158;22.788;2023-03-18T00:38:46;101666.22;;;6.10;48.81
12213;BME280;6169;44.158;22.788;2023-03-18T00:43:52;101659.06;;;6.62;47.88
12213;BME280;6169;44.158;22.788;2023-03-18T00:49:02;101660.53;;;6.20;48.57
12213;BME280;6169;44.158;22.788;2023-03-18T00:54:06;101635.44;;;5.82;49.31
12213;BME280;6169;44.158;22.788;2023-03-18T00:59:11;101649.00;;;6.26;48.60
12213;BME280;6169;44.158;22.788;2023-03-18T01:04:13;101651.03;;;6.09;49.13
12213;BME280;6169;44.158;22.788;2023-03-18T01:09:15;101658.59;;;6.29;47.49
12213;BME280;6169;44.158;22.788;2023-03-18T01:14:19;101654.31;;;6.34;46.87
12213;BME280;6169;44.158;22.788;2023-03-18T01:19:21;101648.16;;;6.26;47.73
12213;BME280;6169;44.158;22.788;2023-03-18T01:24:25;101644.44;;;6.27;47.53
12213;BME280;6169;44.158;22.788;2023-03-18T01:29:29;101645.16;;;6.06;47.19
12213;BME280;6169;44.158;22.788;2023-03-18T01:34:32;101641.09;;;5.72;48.44
12213;BME280;6169;44.158;22.788;2023-03-18T01:39:34;101647.06;;;5.82;48.30
12213;BME280;6169;44.158;22.788;2023-03-18T01:44:38;101640.06;;;5.27;48.92
12213;BME280;6169;44.158;22.788;2023-03-18T01:49:42;101641.75;;;5.51;48.30
12213;BME280;6169;44.158;22.788;2023-03-18T01:54:48;101654.63;;;5.64;47.62
12213;BME280;6169;44.158;22.788;2023-03-18T01:59:54;101654.63;;;5.41;48.15
12213;BME280;6169;44.158;22.788;2023-03-18T02:05:02;101650.31;;;5.77;47.97
12213;BME280;6169;44.158;22.788;2023-03-18T02:10:09;101652.31;;;5.61;48.69
12213;BME280;6169;44.158;22.788;2023-03-18T02:15:15;101656.34;;;5.65;47.84
12213;BME280;6169;44.158;22.788;2023-03-18T02:20:37;101660.28;;;5.54;48.95
12213;BME280;6169;44.158;22.788;2023-03-18T02:25:53;101655.72;;;5.54;49.30
12213;BME280;6169;44.158;22.788;2023-03-18T02:31:01;101663.41;;;5.66;50.13
12213;BME280;6169;44.158;22.788;2023-03-18T02:36:08;101672.63;;;5.71;50.16
12213;BME280;6169;44.158;22.788;2023-03-18T02:41:14;101661.34;;;5.91;49.29
12213;BME280;6169;44.158;22.788;2023-03-18T02:46:30;101664.06;;;5.68;49.92
12213;BME280;6169;44.158;22.788;2023-03-18T02:51:35;101664.09;;;5.83;49.88
12213;BME280;6169;44.158;22.788;2023-03-18T02:56:38;101664.00;;;5.76;49.64
12213;BME280;6169;44.158;22.788;2023-03-18T03:01:44;101675.44;;;5.55;50.04
12213;BME280;6169;44.158;22.788;2023-03-18T03:06:47;101674.06;;;5.82;50.33
12213;BME280;6169;44.158;22.788;2023-03-18T03:11:49;101684.50;;;5.85;50.46
12213;BME280;6169;44.158;22.788;2023-03-18T03:16:53;101684.72;;;5.52;51.75
12213;BME280;6169;44.158;22.788;2023-03-18T03:21:56;101684.97;;;5.43;52.88
12213;BME280;6169;44.158;22.788;2023-03-18T03:26:58;101691.50;;;5.71;51.41
12213;BME280;6169;44.158;22.788;2023-03-18T03:32:02;101685.22;;;5.79;50.67
12213;BME280;6169;44.158;22.788;2023-03-18T03:37:04;101526.19;;;4.39;51.22
12213;BME280;6169;44.158;22.788;2023-03-18T03:42:07;101692.88;;;5.44;51.60
12213;BME280;6169;44.158;22.788;2023-03-18T03:47:11;101703.84;;;5.43;52.36
12213;BME280;6169;44.158;22.788;2023-03-18T03:52:13;101691.25;;;5.58;51.73
12213;BME280;6169;44.158;22.788;2023-03-18T03:57:17;101701.41;;;5.79;51.25
12213;BME280;6169;44.158;22.788;2023-03-18T04:02:21;101703.13;;;5.72;51.44
12213;BME280;6169;44.158;22.788;2023-03-18T04:07:24;101706.66;;;5.49;52.51
12213;BME280;6169;44.158;22.788;2023-03-18T04:12:26;101709.19;;;5.51;52.25
12213;BME280;6169;44.158;22.788;2023-03-18T04:17:30;101718.25;;;5.27;53.93
12213;BME280;6169;44.158;22.788;2023-03-18T04:22:32;101714.25;;;5.15;53.93
12213;BME280;6169;44.158;22.788;2023-03-18T04:27:35;101725.78;;;5.00;54.65
12213;BME280;6169;44.158;22.788;2023-03-18T04:32:39;101725.13;;;5.38;53.67
12213;BME280;6169;44.158;22.788;2023-03-18T04:37:41;101728.25;;;5.49;54.73
12213;BME280;6169;44.158;22.788;2023-03-18T04:42:44;101722.50;;;5.52;54.38
12213;BME280;6169;44.158;22.788;2023-03-18T04:47:48;101732.31;;;5.45;55.13
12213;BME280;6169;44.158;22.788;2023-03-18T04:52:51;101741.25;;;5.06;56.61
12213;BME280;6169;44.158;22.788;2023-03-18T04:57:53;101736.88;;;5.45;55.62
12213;BME280;6169;44.158;22.788;2023-03-18T05:02:57;101746.94;;;5.28;56.31
12213;BME280;6169;44.158;22.788;2023-03-18T05:07:59;101760.16;;;4.98;57.02
12213;BME280;6169;44.158;22.788;2023-03-18T05:13:01;101759.38;;;5.29;56.71
12213;BME280;6169;44.158;22.788;2023-03-18T05:18:05;101756.28;;;5.40;56.01
12213;BME280;6169;44.158;22.788;2023-03-18T05:23:08;101767.72;;;5.73;56.54
12213;BME280;6169;44.158;22.788;2023-03-18T05:28:11;101773.13;;;5.73;56.60
12213;BME280;6169;44.158;22.788;2023-03-18T05:33:14;101781.66;;;6.08;55.63
12213;BME280;6169;44.158;22.788;2023-03-18T05:38:17;101791.91;;;6.13;54.68
12213;BME280;6169;44.158;22.788;2023-03-18T05:43:19;101762.97;;;5.75;55.47
12213;BME280;6169;44.158;22.788;2023-03-18T05:48:24;101781.84;;;5.75;56.90
12213;BME280;6169;44.158;22.788;2023-03-18T05:53:26;101794.72;;;5.96;56.82
12213;BME280;6169;44.158;22.788;2023-03-18T05:58:28;101786.94;;;5.79;57.30
12213;BME280;6169;44.158;22.788;2023-03-18T06:03:32;101802.16;;;5.94;57.22
12213;BME280;6169;44.158;22.788;2023-03-18T06:08:35;101782.66;;;6.30;55.02
12213;BME280;6169;44.158;22.788;2023-03-18T06:13:37;101790.13;;;6.96;53.71
12213;BME280;6169;44.158;22.788;2023-03-18T06:18:41;101795.16;;;7.28;53.43
12213;BME280;6169;44.158;22.788;2023-03-18T06:23:43;101804.75;;;7.16;54.88
12213;BME280;6169;44.158;22.788;2023-03-18T06:28:45;101808.75;;;7.50;52.08
12213;BME280;6169;44.158;22.788;2023-03-18T06:33:49;101809.53;;;7.14;53.46
12213;BME280;6169;44.158;22.788;2023-03-18T06:38:51;101815.09;;;7.57;51.43
12213;BME280;6169;44.158;22.788;2023-03-18T06:43:54;101817.97;;;7.55;52.05
12213;BME280;6169;44.158;22.788;2023-03-18T06:48:58;101813.16;;;7.21;53.96
12213;BME280;6169;44.158;22.788;2023-03-18T06:54:00;101817.78;;;7.57;53.87
12213;BME280;6169;44.158;22.788;2023-03-18T06:59:02;101809.53;;;8.23;51.71
12213;BME280;6169;44.158;22.788;2023-03-18T07:04:06;101819.66;;;7.93;51.85
12213;BME280;6169;44.158;22.788;2023-03-18T07:09:08;101827.00;;;8.20;52.20
12213;BME280;6169;44.158;22.788;2023-03-18T07:14:12;101812.53;;;8.28;50.57
12213;BME280;6169;44.158;22.788;2023-03-18T07:19:17;101801.72;;;8.56;49.83
12213;BME280;6169;44.158;22.788;2023-03-18T07:24:19;101844.50;;;8.18;51.63
12213;BME280;6169;44.158;22.788;2023-03-18T07:29:22;101848.53;;;7.20;56.32
12213;BME280;6169;44.158;22.788;2023-03-18T07:34:26;101846.53;;;7.94;55.21
12213;BME280;6169;44.158;22.788;2023-03-18T07:39:28;101843.16;;;8.07;52.61
12213;BME280;6169;44.158;22.788;2023-03-18T07:44:30;101849.69;;;8.84;49.39
12213;BME280;6169;44.158;22.788;2023-03-18T07:49:34;101854.66;;;9.08;50.20
12213;BME280;6169;44.158;22.788;2023-03-18T07:54:36;101573.88;;;7.17;50.56
12213;BME280;6169;44.158;22.788;2023-03-18T07:59:38;101870.31;;;9.13;51.03
12213;BME280;6169;44.158;22.788;2023-03-18T08:04:42;101868.50;;;9.55;49.62
12213;BME280;6169;44.158;22.788;2023-03-18T08:09:46;101861.31;;;9.82;50.11
12213;BME280;6169;44.158;22.788;2023-03-18T08:14:50;101873.78;;;10.18;50.23
12213;BME280;6169;44.158;22.788;2023-03-18T08:19:54;101866.34;;;9.85;49.75
12213;BME280;6169;44.158;22.788;2023-03-18T08:24:57;101871.31;;;10.50;48.96
12213;BME280;6169;44.158;22.788;2023-03-18T08:29:59;101737.63;;;9.73;48.58
12213;BME280;6169;44.158;22.788;2023-03-18T08:35:03;101868.59;;;10.63;49.02
12213;BME280;6169;44.158;22.788;2023-03-18T08:40:06;101869.63;;;11.02;46.75
12213;BME280;6169;44.158;22.788;2023-03-18T08:45:10;101882.47;;;11.66;45.16
12213;BME280;6169;44.158;22.788;2023-03-18T08:50:14;101877.09;;;12.05;42.96
12213;BME280;6169;44.158;22.788;2023-03-18T08:55:16;101874.75;;;12.08;44.08
12213;BME280;6169;44.158;22.788;2023-03-18T09:00:21;101866.97;;;11.60;43.07
12213;BME280;6169;44.158;22.788;2023-03-18T09:05:25;101871.97;;;11.76;43.83
12213;BME280;6169;44.158;22.788;2023-03-18T09:10:27;101877.28;;;12.41;42.96
12213;BME280;6169;44.158;22.788;2023-03-18T09:15:29;101878.22;;;12.54;41.19
12213;BME280;6169;44.158;22.788;2023-03-18T09:20:33;101874.38;;;12.36;41.53
12213;BME280;6169;44.158;22.788;2023-03-18T09:25:35;101881.41;;;12.82;37.32
12213;BME280;6169;44.158;22.788;2023-03-18T09:30:37;101881.50;;;12.62;36.16
12213;BME280;6169;44.158;22.788;2023-03-18T09:35:43;101892.41;;;12.62;36.49
12213;BME280;6169;44.158;22.788;2023-03-18T09:40:53;101891.28;;;12.45;36.47
12213;BME280;6169;44.158;22.788;2023-03-18T09:46:04;101884.16;;;13.01;35.43
12213;BME280;6169;44.158;22.788;2023-03-18T09:51:22;101883.38;;;13.37;34.93
12213;BME280;6169;44.158;22.788;2023-03-18T09:56:31;101885.22;;;14.10;34.47
12213;BME280;6169;44.158;22.788;2023-03-18T10:01:37;101876.53;;;13.83;34.98
12213;BME280;6169;44.158;22.788;2023-03-18T10:06:43;101879.97;;;13.78;35.39
12213;BME280;6169;44.158;22.788;2023-03-18T10:11:48;101881.84;;;13.23;36.82
12213;BME280;6169;44.158;22.788;2023-03-18T10:17:04;101873.94;;;13.14;35.85
12213;BME280;6169;44.158;22.788;2023-03-18T10:22:22;101872.63;;;14.09;35.46
12213;BME280;6169;44.158;22.788;2023-03-18T10:27:39;101867.38;;;13.77;35.49
12213;BME280;6169;44.158;22.788;2023-03-18T10:32:50;101846.50;;;13.65;34.58
12213;BME280;6169;44.158;22.788;2023-03-18T10:38:01;101862.72;;;13.59;34.05
12213;BME280;6169;44.158;22.788;2023-03-18T10:43:13;101863.94;;;13.64;33.54
12213;BME280;6169;44.158;22.788;2023-03-18T10:48:19;101870.78;;;13.54;34.03
12213;BME280;6169;44.158;22.788;2023-03-18T10:53:29;101857.78;;;13.50;33.10
12213;BME280;6169;44.158;22.788;2023-03-18T10:58:36;101855.63;;;14.61;32.54
12213;BME280;6169;44.158;22.788;2023-03-18T11:03:41;101848.84;;;14.52;32.89
12213;BME280;6169;44.158;22.788;2023-03-18T11:08:48;101845.78;;;14.18;31.22
12213;BME280;6169;44.158;22.788;2023-03-18T11:13:51;101830.38;;;14.59;31.05
12213;BME280;6169;44.158;22.788;2023-03-18T11:18:56;101822.59;;;14.20;29.77
12213;BME280;6169;44.158;22.788;2023-03-18T11:24:00;101844.25;;;14.76;30.37
12213;BME280;6169;44.158;22.788;2023-03-18T11:29:25;101817.06;;;14.51;30.24
12213;BME280;6169;44.158;22.788;2023-03-18T11:34:30;101811.59;;;15.33;29.32
12213;BME280;6169;44.158;22.788;2023-03-18T11:39:38;101801.97;;;14.95;28.28
12213;BME280;6169;44.158;22.788;2023-03-18T11:44:40;101803.50;;;15.14;28.86
12213;BME280;6169;44.158;22.788;2023-03-18T11:49:43;101792.31;;;15.16;29.13
12213;BME280;6169;44.158;22.788;2023-03-18T12:00:20;101785.06;;;15.50;28.38
12213;BME280;6169;44.158;22.788;2023-03-18T12:05:49;101786.22;;;16.28;28.61
12213;BME280;6169;44.158;22.788;2023-03-18T12:10:59;101782.09;;;16.26;26.93
12213;BME280;6169;44.158;22.788;2023-03-18T12:16:12;101780.84;;;16.67;27.58
12213;BME280;6169;44.158;22.788;2023-03-18T12:21:34;101777.75;;;17.20;26.89
12213;BME280;6169;44.158;22.788;2023-03-18T12:26:48;101788.00;;;16.68;26.22
12213;BME280;6169;44.158;22.788;2023-03-18T12:32:01;101782.34;;;17.36;25.51
12213;BME280;6169;44.158;22.788;2023-03-18T12:37:15;101777.16;;;17.18;25.44
12213;BME280;6169;44.158;22.788;2023-03-18T12:42:38;101773.22;;;17.30;25.25
12213;BME280;6169;44.158;22.788;2023-03-18T12:47:48;101773.59;;;17.39;24.74
12213;BME280;6169;44.158;22.788;2023-03-18T12:52:55;101780.00;;;18.26;24.48
12213;BME280;6169;44.158;22.788;2023-03-18T12:58:04;101770.59;;;18.22;23.29
12213;BME280;6169;44.158;22.788;2023-03-18T13:03:20;101773.25;;;17.85;23.90
12213;BME280;6169;44.158;22.788;2023-03-18T13:14:03;101776.59;;;17.37;23.65
12213;BME280;6169;44.158;22.788;2023-03-18T13:19:08;101772.72;;;16.94;23.14
12213;BME280;6169;44.158;22.788;2023-03-18T13:29:55;101765.22;;;17.78;23.71
12213;BME280;6169;44.158;22.788;2023-03-18T13:35:30;101767.28;;;17.38;24.32
12213;BME280;6169;44.158;22.788;2023-03-18T13:40:48;101763.31;;;17.12;24.90
12213;BME280;6169;44.158;22.788;2023-03-18T13:45:57;101757.88;;;18.16;24.04
12213;BME280;6169;44.158;22.788;2023-03-18T13:51:18;101758.88;;;18.04;23.42
12213;BME280;6169;44.158;22.788;2023-03-18T13:56:32;101760.25;;;18.39;23.36
12213;BME280;6169;44.158;22.788;2023-03-18T14:01:48;101752.72;;;17.65;25.12
12213;BME280;6169;44.158;22.788;2023-03-18T14:06:53;101751.66;;;17.00;24.63
12213;BME280;6169;44.158;22.788;2023-03-18T14:12:02;101742.66;;;16.66;24.81
12213;BME280;6169;44.158;22.788;2023-03-18T14:17:16;101742.34;;;15.95;25.60
12213;BME280;6169;44.158;22.788;2023-03-18T14:22:26;101735.69;;;16.08;25.65
12213;BME280;6169;44.158;22.788;2023-03-18T14:27:29;101740.16;;;17.03;23.79
12213;BME280;6169;44.158;22.788;2023-03-18T14:32:38;101738.81;;;17.06;24.40
12213;BME280;6169;44.158;22.788;2023-03-18T14:37:54;101741.44;;;17.18;23.83
12213;BME280;6169;44.158;22.788;2023-03-18T14:43:08;101740.56;;;16.73;24.73
12213;BME280;6169;44.158;22.788;2023-03-18T14:48:17;101735.69;;;16.97;25.04
12213;BME280;6169;44.158;22.788;2023-03-18T14:53:24;101743.19;;;16.12;24.10
12213;BME280;6169;44.158;22.788;2023-03-18T14:58:28;101734.28;;;16.56;24.45
12213;BME280;6169;44.158;22.788;2023-03-18T15:03:32;101742.75;;;17.15;24.21
12213;BME280;6169;44.158;22.788;2023-03-18T15:08:36;101732.34;;;16.95;24.46
12213;BME280;6169;44.158;22.788;2023-03-18T15:13:41;101733.38;;;17.11;24.85
12213;BME280;6169;44.158;22.788;2023-03-18T15:18:50;101734.44;;;16.66;24.85
12213;BME280;6169;44.158;22.788;2023-03-18T15:23:56;101737.31;;;16.37;24.03
12213;BME280;6169;44.158;22.788;2023-03-18T15:29:01;101738.03;;;16.88;24.06
12213;BME280;6169;44.158;22.788;2023-03-18T15:34:10;101745.50;;;16.71;23.91
12213;BME280;6169;44.158;22.788;2023-03-18T15:39:19;101748.41;;;16.64;24.29
12213;BME280;6169;44.158;22.788;2023-03-18T15:44:25;101742.00;;;16.08;24.06
12213;BME280;6169;44.158;22.788;2023-03-18T15:49:29;101746.16;;;16.11;24.75
12213;BME280;6169;44.158;22.788;2023-03-18T15:54:38;101715.38;;;16.25;24.64
12213;BME280;6169;44.158;22.788;2023-03-18T15:59:43;101740.88;;;16.38;25.33
12213;BME280;6169;44.158;22.788;2023-03-18T16:04:46;101744.09;;;16.01;25.92
12213;BME280;6169;44.158;22.788;2023-03-18T16:09:48;101607.66;;;14.72;26.42
12213;BME280;6169;44.158;22.788;2023-03-18T16:14:51;101753.78;;;15.92;26.82
12213;BME280;6169;44.158;22.788;2023-03-18T16:19:56;101757.22;;;15.42;27.38
12213;BME280;6169;44.158;22.788;2023-03-18T16:24:59;101626.69;;;14.78;28.23
12213;BME280;6169;44.158;22.788;2023-03-18T16:30:01;101759.34;;;15.11;28.57
12213;BME280;6169;44.158;22.788;2023-03-18T16:35:07;101763.44;;;14.73;29.13
12213;BME280;6169;44.158;22.788;2023-03-18T16:40:17;101772.44;;;14.26;29.34
12213;BME280;6169;44.158;22.788;2023-03-18T16:45:23;101766.59;;;14.23;29.66
12213;BME280;6169;44.158;22.788;2023-03-18T16:50:29;101762.81;;;13.64;30.28
12213;BME280;6169;44.158;22.788;2023-03-18T16:55:34;101776.63;;;13.87;30.13
12213;BME280;6169;44.158;22.788;2023-03-18T17:00:36;101783.50;;;13.59;31.00
12213;BME280;6169;44.158;22.788;2023-03-18T17:05:41;101790.66;;;13.24;31.34
12213;BME280;6169;44.158;22.788;2023-03-18T17:10:44;101789.59;;;13.06;32.52
12213;BME280;6169;44.158;22.788;2023-03-18T17:15:48;101772.78;;;12.66;32.53
12213;BME280;6169;44.158;22.788;2023-03-18T17:20:52;101786.63;;;12.64;32.72
12213;BME280;6169;44.158;22.788;2023-03-18T17:25:56;101805.75;;;12.39;33.58
12213;BME280;6169;44.158;22.788;2023-03-18T17:30:59;101797.84;;;12.31;33.34
12213;BME280;6169;44.158;22.788;2023-03-18T17:36:04;101806.63;;;12.33;33.58
12213;BME280;6169;44.158;22.788;2023-03-18T17:41:13;101800.44;;;11.88;34.73
12213;BME280;6169;44.158;22.788;2023-03-18T17:46:17;101803.72;;;11.58;34.62
12213;BME280;6169;44.158;22.788;2023-03-18T17:51:21;101814.78;;;11.70;33.39
12213;BME280;6169;44.158;22.788;2023-03-18T17:56:26;101810.91;;;11.46;33.89
12213;BME280;6169;44.158;22.788;2023-03-18T18:01:30;101818.63;;;11.49;33.61
12213;BME280;6169;44.158;22.788;2023-03-18T18:06:34;101811.28;;;11.56;33.82
12213;BME280;6169;44.158;22.788;2023-03-18T18:11:38;101812.81;;;11.32;33.94
12213;BME280;6169;44.158;22.788;2023-03-18T18:16:44;101822.94;;;11.05;34.19
12213;BME280;6169;44.158;22.788;2023-03-18T18:21:48;101825.41;;;11.26;34.25
12213;BME280;6169;44.158;22.788;2023-03-18T18:26:52;101767.13;;;10.76;35.32
12213;BME280;6169;44.158;22.788;2023-03-18T18:31:55;101821.94;;;10.93;35.37
12213;BME280;6169;44.158;22.788;2023-03-18T18:37:00;101828.41;;;10.65;36.01
12213;BME280;6169;44.158;22.788;2023-03-18T18:42:03;101828.22;;;10.86;36.03
12213;BME280;6169;44.158;22.788;2023-03-18T18:47:16;101837.84;;;10.76;36.25
12213;BME280;6169;44.158;22.788;2023-03-18T18:52:21;101841.84;;;10.86;37.01
12213;BME280;6169;44.158;22.788;2023-03-18T18:57:25;101848.53;;;10.57;37.01
12213;BME280;6169;44.158;22.788;2023-03-18T19:02:30;101847.22;;;10.33;37.31
12213;BME280;6169;44.158;22.788;2023-03-18T19:07:36;101847.22;;;10.33;37.09
12213;BME280;6169;44.158;22.788;2023-03-18T19:12:40;101839.25;;;10.05;37.90
12213;BME280;6169;44.158;22.788;2023-03-18T19:17:45;101853.50;;;10.27;37.82
12213;BME280;6169;44.158;22.788;2023-03-18T19:22:50;101858.31;;;10.32;37.72
12213;BME280;6169;44.158;22.788;2023-03-18T19:27:53;101860.97;;;10.05;39.01
12213;BME280;6169;44.158;22.788;2023-03-18T19:32:58;101871.28;;;10.36;40.09
12213;BME280;6169;44.158;22.788;2023-03-18T19:38:03;101869.19;;;10.45;41.85
12213;BME280;6169;44.158;22.788;2023-03-18T19:43:15;101873.72;;;10.05;42.70
12213;BME280;6169;44.158;22.788;2023-03-18T19:48:20;101871.13;;;9.83;44.08
12213;BME280;6169;44.158;22.788;2023-03-18T19:53:26;101879.41;;;10.16;41.98
12213;BME280;6169;44.158;22.788;2023-03-18T19:58:28;101882.28;;;10.08;42.13
12213;BME280;6169;44.158;22.788;2023-03-18T20:03:30;101879.03;;;9.71;41.70
12213;BME280;6169;44.158;22.788;2023-03-18T20:08:34;101887.56;;;9.62;41.92
12213;BME280;6169;44.158;22.788;2023-03-18T20:13:36;101884.75;;;9.48;41.46
12213;BME280;6169;44.158;22.788;2023-03-18T20:18:39;101884.63;;;9.63;41.90
12213;BME280;6169;44.158;22.788;2023-03-18T20:23:43;101879.66;;;9.04;42.27
12213;BME280;6169;44.158;22.788;2023-03-18T20:28:46;101876.13;;;9.38;41.92
12213;BME280;6169;44.158;22.788;2023-03-18T20:33:53;101878.22;;;9.77;41.30
12213;BME280;6169;44.158;22.788;2023-03-18T20:38:57;101878.69;;;9.11;41.76
12213;BME280;6169;44.158;22.788;2023-03-18T20:43:59;101867.22;;;8.88;42.64
12213;BME280;6169;44.158;22.788;2023-03-18T20:49:01;101875.63;;;8.93;41.35
12213;BME280;6169;44.158;22.788;2023-03-18T20:54:14;101877.47;;;8.21;43.42
12213;BME280;6169;44.158;22.788;2023-03-18T20:59:17;101874.31;;;7.82;45.35
12213;BME280;6169;44.158;22.788;2023-03-18T21:04:19;101877.66;;;7.84;45.50
12213;BME280;6169;44.158;22.788;2023-03-18T21:09:24;101886.25;;;7.72;44.98
12213;BME280;6169;44.158;22.788;2023-03-18T21:14:26;101879.09;;;7.20;44.95
12213;BME280;6169;44.158;22.788;2023-03-18T21:19:28;101879.94;;;7.21;45.73
12213;BME280;6169;44.158;22.788;2023-03-18T21:24:32;101877.97;;;7.29;44.76
12213;BME280;6169;44.158;22.788;2023-03-18T21:29:35;101882.56;;;7.29;44.37
12213;BME280;6169;44.158;22.788;2023-03-18T21:34:37;101870.03;;;6.60;45.51
12213;BME280;6169;44.158;22.788;2023-03-18T21:39:40;101886.53;;;6.19;47.33
12213;BME280;6169;44.158;22.788;2023-03-18T21:44:43;101887.56;;;6.41;45.97
12213;BME280;6169;44.158;22.788;2023-03-18T21:49:46;101894.91;;;6.71;46.96
12213;BME280;6169;44.158;22.788;2023-03-18T21:54:50;101881.00;;;6.59;45.89
12213;BME280;6169;44.158;22.788;2023-03-18T21:59:52;101893.47;;;6.14;46.86
12213;BME280;6169;44.158;22.788;2023-03-18T22:04:56;101885.81;;;6.72;45.49
12213;BME280;6169;44.158;22.788;2023-03-18T22:10:00;101882.56;;;6.53;45.41
12213;BME280;6169;44.158;22.788;2023-03-18T22:15:02;101871.72;;;6.15;46.55
12213;BME280;6169;44.158;22.788;2023-03-18T22:20:06;101869.06;;;5.76;47.42
12213;BME280;6169;44.158;22.788;2023-03-18T22:25:15;101867.88;;;6.10;45.59
12213;BME280;6169;44.158;22.788;2023-03-18T22:30:26;101861.63;;;5.78;46.64
12213;BME280;6169;44.158;22.788;2023-03-18T22:35:30;101859.91;;;5.85;45.61
12213;BME280;6169;44.158;22.788;2023-03-18T22:40:34;101866.06;;;5.71;45.95
12213;BME280;6169;44.158;22.788;2023-03-18T22:45:36;101859.63;;;6.26;44.66
12213;BME280;6169;44.158;22.788;2023-03-18T22:50:38;101859.69;;;5.95;45.24
12213;BME280;6169;44.158;22.788;2023-03-18T22:55:42;101862.91;;;5.59;46.58
12213;BME280;6169;44.158;22.788;2023-03-18T23:00:45;101868.09;;;5.69;46.28
12213;BME280;6169;44.158;22.788;2023-03-18T23:05:48;101866.25;;;5.61;45.86
12213;BME280;6169;44.158;22.788;2023-03-18T23:10:53;101860.47;;;5.33;46.48
12213;BME280;6169;44.158;22.788;2023-03-18T23:15:56;101859.56;;;5.49;46.98
12213;BME280;6169;44.158;22.788;2023-03-18T23:20:59;101861.09;;;5.51;46.70
12213;BME280;6169;44.158;22.788;2023-03-18T23:26:03;101856.88;;;5.49;46.30
12213;BME280;6169;44.158;22.788;2023-03-18T23:31:05;101859.69;;;5.64;45.71
12213;BME280;6169;44.158;22.788;2023-03-18T23:36:09;101858.97;;;5.70;45.20
12213;BME280;6169;44.158;22.788;2023-03-18T23:41:13;101857.44;;;5.36;46.81
12213;BME280;6169;44.158;22.788;2023-03-18T23:46:15;101850.09;;;5.53;46.24
12213;BME280;6169;44.158;22.788;2023-03-18T23:51:17;101854.06;;;5.42;47.00
12213;BME280;6169;44.158;22.788;2023-03-18T23:56:21;101857.66;;;5.02;46.73
